MiSS Gloria — WDF2691 — position and weather

sailwx.info

Track history (hours):
 
Tides and Currents Weather Stations Pressure Air Temp Water Temp Dewpoint Dewpoint Depression Visibility Wind Speed Wind Dir Waves Ship Positions

MiSS Gloria

Owner: Marquette Transportation Company Offshore LLC, Jefferson, LA. More information available from US FCC via Universal Licensing System and Coast Guard Vessel Documentation Center.

Last reported at 2017-Dec-18 20:30 UTC. Time now 2017-Dec-18 20:39 UTC.
Position N 39°28' W 075°34'.

Length 29 m; draft 3 m.

Type: Tug. MMSI: 367430780.

Date/timePositionNaut miles runAvg speedWind from/ knotsBaromVisibWave heightAir tempDewpointWater temp
2017-Dec-18 20:30N 39°28' W 075°34'4 8.6
2017-Dec-18 20:00N 39°32' W 075°33'4 7.9
2017-Dec-18 19:30N 39°36' W 075°34'3 6.5
2017-Dec-18 19:00N 39°39' W 075°33'3 6.2
2017-Dec-18 18:31N 39°42' W 075°31'3 6.4
2017-Dec-18 18:01N 39°45' W 075°30'3 5.5
2017-Dec-18 17:30N 39°47' W 075°28'3 5.1
2017-Dec-18 17:00N 39°48' W 075°25'2 4.6
2017-Dec-18 16:30N 39°50' W 075°22'2 3.4
2017-Dec-18 16:00N 39°51' W 075°21'1 1.2
2017-Dec-18 15:30N 39°51' W 075°20'0 0.1
2017-Dec-18 15:00N 39°51' W 075°20'2 4.8
2017-Dec-18 14:31N 39°50' W 075°22'5 9.7
2017-Dec-18 14:01N 39°47' W 075°27'4 7.6
2017-Dec-18 13:31N 39°43' W 075°30'5 9.3
2017-Dec-18 13:01N 39°39' W 075°33'4 8.1
2017-Dec-18 12:30N 39°35' W 075°34'4 8.6
2017-Dec-18 12:01N 39°31' W 075°33'4 8.2
2017-Dec-18 11:31N 39°27' W 075°33'4 8.0
2017-Dec-18 11:01N 39°24' W 075°30'4 7.9
2017-Dec-18 10:30N 39°21' W 075°26'4 7.7
2017-Dec-18 10:01N 39°18' W 075°23'4 7.5
2017-Dec-18 09:30N 39°15' W 075°20'4 7.4
2017-Dec-18 09:01N 39°12' W 075°17'4 7.6
2017-Dec-18 08:31N 39°09' W 075°14'4 7.9
2017-Dec-18 08:01N 39°06' W 075°11'8 7.1
2017-Dec-18 06:55N 38°58' W 075°10'1 1.8
2017-Dec-18 06:31N 38°59' W 075°09'3 5.4
2017-Dec-18 06:00N 39°01' W 075°10'4 7.6
2017-Dec-18 05:31N 39°05' W 075°11'4 7.5
2017-Dec-18 05:00N 39°08' W 075°14'3 7.0
2017-Dec-18 04:30N 39°11' W 075°16'3 6.7
2017-Dec-18 04:00N 39°14' W 075°18'3 6.1
2017-Dec-18 03:31N 39°16' W 075°21'3 5.4
2017-Dec-18 03:00N 39°18' W 075°23'3 5.1
2017-Dec-18 02:30N 39°20' W 075°25'2 4.4
2017-Dec-18 02:00N 39°22' W 075°27'2 4.6
2017-Dec-18 01:31N 39°24' W 075°29'2 4.8
2017-Dec-18 01:00N 39°25' W 075°31'3 5.3
2017-Dec-18 00:30N 39°27' W 075°34'3 5.9
2017-Dec-18 00:00N 39°30' W 075°33'3 6.6
2017-Dec-17 23:30N 39°34' W 075°33'4 7.7
2017-Dec-17 23:00N 39°37' W 075°35'4 8.0
2017-Dec-17 22:30N 39°40' W 075°32'4 8.3
2017-Dec-17 22:00N 39°44' W 075°30'3 6.0
2017-Dec-17 21:30N 39°47' W 075°28'1 1.1
2017-Dec-17 21:00N 39°47' W 075°27'0 0.1
2017-Dec-17 20:30N 39°47' W 075°27'0 0.5
2017-Dec-17 20:00N 39°47' W 075°27'2 3.9
2017-Dec-17 19:31N 39°46' W 075°29'3 6.3
2017-Dec-17 19:01N 39°43' W 075°30'3 6.9
2017-Dec-17 18:31N 39°40' W 075°32'3 6.9
2017-Dec-17 18:00N 39°37' W 075°34'3 6.2
2017-Dec-17 17:30N 39°34' W 075°33'4 8.6
2017-Dec-17 17:00N 39°29' W 075°34'4 8.6
2017-Dec-17 16:30N 39°25' W 075°31'5 9.6
2017-Dec-17 16:01N 39°22' W 075°27'5 9.9
2017-Dec-17 15:30N 39°18' W 075°23'510.1
2017-Dec-17 15:00N 39°15' W 075°19'5 9.7
2017-Dec-17 14:30N 39°10' W 075°16'5 9.4
2017-Dec-17 14:00N 39°06' W 075°12'8 8.9
2017-Dec-17 13:05N 38°58' W 075°09'0 5.9
2017-Dec-17 13:00N 38°58' W 075°09'0 0.2
2017-Dec-17 12:31N 38°58' W 075°09'1 2.0
2017-Dec-17 12:01N 38°59' W 075°09'0 0.7
2017-Dec-17 11:30N 38°59' W 075°10'1 2.1
2017-Dec-17 11:01N 39°00' W 075°10'2 3.2
2017-Dec-17 10:31N 39°02' W 075°10'3 5.8
2017-Dec-17 10:01N 39°05' W 075°11'3 6.4
2017-Dec-17 09:30N 39°07' W 075°13'3 7.0
2017-Dec-17 09:01N 39°10' W 075°16'4 8.5
2017-Dec-17 08:31N 39°14' W 075°18'4 8.9
2017-Dec-17 08:00N 39°17' W 075°22'5 9.2
2017-Dec-17 07:31N 39°21' W 075°26'4 8.9
2017-Dec-17 07:01N 39°24' W 075°30'4 8.7
2017-Dec-17 06:31N 39°28' W 075°34'4 8.2
2017-Dec-17 06:01N 39°32' W 075°33'4 7.4
2017-Dec-17 05:31N 39°35' W 075°34'3 6.2
2017-Dec-17 05:00N 39°38' W 075°34'3 6.3
2017-Dec-17 04:31N 39°41' W 075°31'3 5.8
2017-Dec-17 04:01N 39°44' W 075°30'3 5.2
2017-Dec-17 03:31N 39°46' W 075°29'2 4.1
2017-Dec-17 03:01N 39°47' W 075°27'0 0.3
2017-Dec-17 02:31N 39°47' W 075°27'1 1.8
2017-Dec-17 02:01N 39°47' W 075°28'1 1.3
2017-Dec-17 01:30N 39°46' W 075°28'4 8.4
2017-Dec-17 01:01N 39°42' W 075°31'4 8.9
2017-Dec-17 00:31N 39°39' W 075°33'4 8.0
2017-Dec-17 00:01N 39°35' W 075°33'4 8.3
2017-Dec-16 23:30N 39°30' W 075°33'4 7.7
2017-Dec-16 23:00N 39°27' W 075°33'4 7.7
2017-Dec-16 22:30N 39°24' W 075°29'3 6.7
2017-Dec-16 22:00N 39°21' W 075°27'2 4.8
2017-Dec-16 21:30N 39°20' W 075°24'3 6.5
2017-Dec-16 21:01N 39°17' W 075°22'3 6.8
2017-Dec-16 20:30N 39°15' W 075°19'3 6.4
2017-Dec-16 20:00N 39°12' W 075°17'3 6.7
2017-Dec-16 19:30N 39°09' W 075°14'3 7.0
2017-Dec-16 19:00N 39°06' W 075°12'8 6.4
2017-Dec-16 17:42N 38°58' W 075°10'1 1.7
2017-Dec-16 17:16N 38°59' W 075°10'2 4.1
2017-Dec-16 16:50N 39°00' W 075°10'2 5.5
2017-Dec-16 16:25N 39°03' W 075°10'3 6.8
2017-Dec-16 16:01N 39°05' W 075°11'3 6.7
2017-Dec-16 15:31N 39°08' W 075°14'3 6.2
2017-Dec-16 15:01N 39°10' W 075°16'3 5.7
2017-Dec-16 14:30N 39°13' W 075°18'3 5.0
2017-Dec-16 14:01N 39°15' W 075°19'3 5.4
2017-Dec-16 13:28N 39°17' W 075°22'1 3.2
2017-Dec-16 13:00N 39°18' W 075°23'2 4.1
2017-Dec-16 12:28N 39°20' W 075°25'2 4.0
2017-Dec-16 12:00N 39°21' W 075°27'2 4.3
2017-Dec-16 11:30N 39°23' W 075°29'2 4.7
2017-Dec-16 11:00N 39°25' W 075°31'3 5.3
2017-Dec-16 10:30N 39°27' W 075°33'3 5.9
2017-Dec-16 10:00N 39°30' W 075°34'3 6.9
2017-Dec-16 09:30N 39°33' W 075°33'4 7.3
2017-Dec-16 09:00N 39°36' W 075°34'4 6.9
2017-Dec-16 08:29N 39°40' W 075°32'4 7.6
2017-Dec-16 08:00N 39°43' W 075°31'4 8.3
2017-Dec-16 07:29N 39°47' W 075°28'0 0.8
2017-Dec-16 07:00N 39°47' W 075°27'0 0.0
2017-Dec-16 06:30N 39°47' W 075°27'0 0.0
2017-Dec-16 06:00N 39°47' W 075°27'1 1.0
2017-Dec-16 05:30N 39°47' W 075°27'3 5.2
2017-Dec-16 04:59N 39°49' W 075°24'2 3.5
2017-Dec-16 04:30N 39°50' W 075°22'2 3.6
2017-Dec-16 04:00N 39°51' W 075°20'1 1.3
2017-Dec-16 03:31N 39°51' W 075°19'0 0.0
2017-Dec-16 03:01N 39°51' W 075°19'1 2.2
2017-Dec-16 02:30N 39°51' W 075°21'510.1
2017-Dec-16 02:00N 39°48' W 075°26'510.2
2017-Dec-16 01:30N 39°44' W 075°30'510.5
2017-Dec-16 01:01N 39°39' W 075°33'5 9.2
2017-Dec-16 00:31N 39°34' W 075°33'2 4.4
2017-Dec-16 00:00N 39°32' W 075°33'5 9.5
2017-Dec-15 23:31N 39°27' W 075°34'5 9.3
2017-Dec-15 23:00N 39°24' W 075°30'4 8.3
2017-Dec-15 22:31N 39°21' W 075°26'4 7.6
2017-Dec-15 22:00N 39°18' W 075°23'4 7.7
2017-Dec-15 21:30N 39°15' W 075°19'3 5.1
2017-Dec-15 21:01N 39°13' W 075°18'3 6.8
2017-Dec-15 20:30N 39°10' W 075°15'4 7.5
2017-Dec-15 20:01N 39°07' W 075°13'9 6.1
2017-Dec-15 18:28N 38°58' W 075°10'5 4.2
2017-Dec-15 17:20N 39°03' W 075°10'2 6.8
2017-Dec-15 17:00N 39°05' W 075°11'3 7.0
2017-Dec-15 16:31N 39°08' W 075°13'3 6.8
2017-Dec-15 16:00N 39°10' W 075°16'3 6.5
2017-Dec-15 15:30N 39°13' W 075°18'3 6.2
2017-Dec-15 15:00N 39°16' W 075°20'3 5.6
2017-Dec-15 14:30N 39°18' W 075°23'2 4.9
2017-Dec-15 14:00N 39°20' W 075°25'2 4.2
2017-Dec-15 13:31N 39°21' W 075°27'2 3.6
2017-Dec-15 13:01N 39°23' W 075°28'2 3.7
2017-Dec-15 12:30N 39°24' W 075°30'2 3.9
2017-Dec-15 12:00N 39°25' W 075°31'2 3.8
2017-Dec-15 11:30N 39°27' W 075°33'2 4.2
2017-Dec-15 11:01N 39°29' W 075°34'2 4.6
2017-Dec-15 10:30N 39°31' W 075°33'3 5.2
2017-Dec-15 10:00N 39°34' W 075°33'3 6.0
2017-Dec-15 09:30N 39°36' W 075°34'3 6.0
2017-Dec-15 09:00N 39°39' W 075°33'4 7.1
2017-Dec-15 08:30N 39°42' W 075°31'4 7.4
2017-Dec-15 08:00N 39°46' W 075°29'3 6.1
2017-Dec-15 07:30N 39°48' W 075°26'3 5.7
2017-Dec-15 07:00N 39°49' W 075°23'2 4.8
2017-Dec-15 06:30N 39°51' W 075°21'1 1.7
2017-Dec-15 06:00N 39°51' W 075°20'1 1.0
2017-Dec-15 05:30N 39°51' W 075°20'3 5.4
2017-Dec-15 05:00N 39°49' W 075°23'3 6.6
2017-Dec-15 04:30N 39°47' W 075°27'3 5.6
2017-Dec-15 04:00N 39°45' W 075°29'12 8.0
2017-Dec-15 02:30N 39°34' W 075°33'9 6.1
2017-Dec-15 01:01N 39°25' W 075°30'4 7.2
2017-Dec-15 00:30N 39°22' W 075°27'15 2.5
2017-Dec-14 18:30N 39°10' W 075°16'4 8.9
2017-Dec-14 18:00N 39°14' W 075°18'5 9.3
2017-Dec-14 17:30N 39°17' W 075°22'5 9.2
2017-Dec-14 17:00N 39°21' W 075°26'4 8.6
2017-Dec-14 16:31N 39°24' W 075°30'4 8.2
2017-Dec-14 16:01N 39°27' W 075°33'7 7.1
2017-Dec-14 15:00N 39°34' W 075°33'3 6.2
2017-Dec-14 14:31N 39°37' W 075°35'3 5.4
2017-Dec-14 14:01N 39°39' W 075°33'2 4.9
2017-Dec-14 13:31N 39°41' W 075°31'2 4.8
2017-Dec-14 13:00N 39°44' W 075°30'2 4.4
2017-Dec-14 12:31N 39°46' W 075°29'2 3.4
2017-Dec-14 12:00N 39°47' W 075°28'0 0.4
2017-Dec-14 11:31N 39°47' W 075°27'1 1.2
2017-Dec-14 11:00N 39°47' W 075°27'0 0.5
2017-Dec-14 10:30N 39°47' W 075°26'0 0.0
2017-Dec-14 10:01N 39°47' W 075°27'0 0.0
2017-Dec-14 09:31N 39°47' W 075°27'1 1.7
2017-Dec-14 09:01N 39°47' W 075°27'3 6.3
2017-Dec-14 08:31N 39°44' W 075°30'2 3.5
2017-Dec-14 08:01N 39°43' W 075°32'0 0.0
2017-Dec-14 07:30N 39°43' W 075°32'0 0.0
2017-Dec-14 07:00N 39°43' W 075°32'0 0.0
2017-Dec-14 06:31N 39°43' W 075°32'0 0.0
2017-Dec-14 06:00N 39°43' W 075°32'0 0.0
2017-Dec-14 05:30N 39°43' W 075°32'0 0.0
2017-Dec-14 05:00N 39°43' W 075°32'1 1.2
2017-Dec-14 04:30N 39°43' W 075°31'3 6.7
2017-Dec-14 04:00N 39°46' W 075°29'2 4.2
2017-Dec-14 03:30N 39°47' W 075°27'0 0.0
2017-Dec-14 03:00N 39°47' W 075°27'0 0.0
2017-Dec-14 02:30N 39°47' W 075°27'0 0.0
2017-Dec-14 02:00N 39°47' W 075°27'0 0.0
2017-Dec-14 01:30N 39°47' W 075°27'0 0.0
2017-Dec-14 01:01N 39°47' W 075°27'1 1.1
2017-Dec-14 00:30N 39°48' W 075°26'0 0.0
2017-Dec-14 00:00N 39°48' W 075°26'0 0.0
2017-Dec-13 23:31N 39°48' W 075°26'0 0.0
2017-Dec-13 23:00N 39°48' W 075°26'0 0.0
2017-Dec-13 22:30N 39°48' W 075°26'0 0.0
2017-Dec-13 22:01N 39°48' W 075°26'0 0.0
2017-Dec-13 21:30N 39°48' W 075°26'1 1.1
2017-Dec-13 21:00N 39°47' W 075°27'0 0.0
2017-Dec-13 20:30N 39°47' W 075°27'0 0.0
2017-Dec-13 20:00N 39°47' W 075°27'0 0.0
2017-Dec-13 19:30N 39°47' W 075°27'0 0.0
2017-Dec-13 19:00N 39°47' W 075°27'0 0.0
2017-Dec-13 18:31N 39°47' W 075°27'0 0.0
2017-Dec-13 18:00N 39°47' W 075°27'0 0.0
2017-Dec-13 17:30N 39°47' W 075°27'0 0.0
2017-Dec-13 17:00N 39°47' W 075°27'0 0.0
2017-Dec-13 16:30N 39°47' W 075°27'0 0.0
2017-Dec-13 16:00N 39°47' W 075°27'0 0.1
2017-Dec-13 15:30N 39°47' W 075°26'0 0.0
2017-Dec-13 15:00N 39°47' W 075°26'0 0.0
2017-Dec-13 14:30N 39°47' W 075°26'0 0.0
2017-Dec-13 14:00N 39°47' W 075°26'0 0.0
2017-Dec-13 13:30N 39°47' W 075°26'0 0.0
2017-Dec-13 13:00N 39°47' W 075°26'0 0.0
2017-Dec-13 12:30N 39°47' W 075°26'0 0.0
2017-Dec-13 12:00N 39°47' W 075°26'0 0.0
2017-Dec-13 11:30N 39°47' W 075°26'0 0.0
2017-Dec-13 11:00N 39°47' W 075°26'0 0.0
2017-Dec-13 10:30N 39°47' W 075°26'0 0.0
2017-Dec-13 10:00N 39°47' W 075°26'0 0.0
2017-Dec-13 09:30N 39°47' W 075°26'0 0.0
2017-Dec-13 09:00N 39°47' W 075°26'0 0.0
2017-Dec-13 08:30N 39°47' W 075°26'0 0.0
2017-Dec-13 08:00N 39°47' W 075°26'0 0.0
2017-Dec-13 07:30N 39°47' W 075°26'0 0.0
2017-Dec-13 07:00N 39°47' W 075°26'0 0.0
2017-Dec-13 06:30N 39°47' W 075°26'0 0.0
2017-Dec-13 06:00N 39°47' W 075°26'0 0.0
2017-Dec-13 05:30N 39°47' W 075°26'0 0.0
2017-Dec-13 05:00N 39°47' W 075°26'0 0.0
2017-Dec-13 04:30N 39°47' W 075°26'0 0.0
2017-Dec-13 04:00N 39°47' W 075°26'0 0.0
2017-Dec-13 03:30N 39°47' W 075°26'0 0.0
2017-Dec-13 03:00N 39°47' W 075°26'0 0.0
2017-Dec-13 02:30N 39°47' W 075°26'0 0.0
2017-Dec-13 02:00N 39°47' W 075°26'0 0.0
2017-Dec-13 01:31N 39°47' W 075°26'1 2.9
2017-Dec-13 01:01N 39°48' W 075°25'2 4.3
2017-Dec-13 00:30N 39°49' W 075°23'2 3.2
2017-Dec-13 00:00N 39°50' W 075°21'1 1.4
2017-Dec-12 23:30N 39°51' W 075°20'0 0.3
2017-Dec-12 23:00N 39°51' W 075°20'0 0.2
2017-Dec-12 22:30N 39°51' W 075°20'0 0.1
2017-Dec-12 22:00N 39°51' W 075°20'0 0.0
2017-Dec-12 21:31N 39°51' W 075°20'0 0.0
2017-Dec-12 21:00N 39°51' W 075°20'1 1.5
2017-Dec-12 20:30N 39°50' W 075°21'3 5.1
2017-Dec-12 20:00N 39°49' W 075°24'3 6.5
2017-Dec-12 19:30N 39°51' W 075°20'0 0.2
2017-Dec-12 19:01N 39°51' W 075°20'3 5.3
2017-Dec-12 18:31N 39°49' W 075°23'4 7.7
2017-Dec-12 18:01N 39°47' W 075°27'2 4.6
2017-Dec-12 17:31N 39°45' W 075°29'3 6.2
2017-Dec-12 17:00N 39°42' W 075°31'3 5.9
2017-Dec-12 16:30N 39°40' W 075°32'3 5.9
2017-Dec-12 16:00N 39°37' W 075°35'3 6.0
2017-Dec-12 15:30N 39°35' W 075°33'4 8.3
2017-Dec-12 15:00N 39°30' W 075°33'2 4.2
2017-Dec-12 14:30N 39°28' W 075°34'3 6.6
2017-Dec-12 14:00N 39°25' W 075°31'5 9.2
2017-Dec-12 13:30N 39°22' W 075°27'3 6.8
2017-Dec-12 13:00N 39°20' W 075°24'4 7.9
2017-Dec-12 12:30N 39°17' W 075°21'4 7.0
2017-Dec-12 11:55N 39°13' W 075°18'3 7.5
2017-Dec-12 11:28N 39°10' W 075°16'4 7.2
2017-Dec-12 10:56N 39°07' W 075°13'3 0.8
2017-Dec-12 07:20N 39°05' W 075°11'2 4.2
2017-Dec-12 06:55N 39°06' W 075°12'2 4.2
2017-Dec-12 06:28N 39°08' W 075°14'2 4.7
2017-Dec-12 05:59N 39°10' W 075°15'3 5.8
2017-Dec-12 05:30N 39°12' W 075°17'4 7.1
2017-Dec-12 04:59N 39°15' W 075°20'4 7.5
2017-Dec-12 04:25N 39°18' W 075°23'4 7.2
2017-Dec-12 03:55N 39°21' W 075°27'2 5.5
2017-Dec-12 03:30N 39°23' W 075°28'4 8.7
2017-Dec-12 03:00N 39°26' W 075°32'3 6.0
2017-Dec-12 02:30N 39°29' W 075°34'4 7.6
2017-Dec-12 02:00N 39°32' W 075°33'3 6.2
2017-Dec-12 01:30N 39°35' W 075°34'3 5.6
2017-Dec-12 01:00N 39°38' W 075°34'3 5.5
2017-Dec-12 00:31N 39°40' W 075°32'3 5.1
2017-Dec-12 00:01N 39°43' W 075°31'2 4.8
2017-Dec-11 23:31N 39°45' W 075°29'2 4.0
2017-Dec-11 23:00N 39°47' W 075°28'0 0.9
2017-Dec-11 22:30N 39°47' W 075°27'0 0.1
2017-Dec-11 22:00N 39°47' W 075°27'0 0.0
2017-Dec-11 21:31N 39°47' W 075°27'0 0.2
2017-Dec-11 21:00N 39°47' W 075°27'0 0.2
2017-Dec-11 20:30N 39°47' W 075°27'0 0.1
2017-Dec-11 20:01N 39°47' W 075°27'0 0.5
2017-Dec-11 19:30N 39°47' W 075°27'0 0.0
2017-Dec-11 19:00N 39°47' W 075°27'0 0.0
2017-Dec-11 18:31N 39°47' W 075°27'0 0.0
2017-Dec-11 18:00N 39°47' W 075°27'0 0.5
2017-Dec-11 17:31N 39°47' W 075°27'1 1.6
2017-Dec-11 17:01N 39°48' W 075°26'0 0.9
2017-Dec-11 16:30N 39°47' W 075°27'0 0.5
2017-Dec-11 16:00N 39°47' W 075°27'2 3.9
2017-Dec-11 15:31N 39°48' W 075°25'2 5.0
2017-Dec-11 15:01N 39°50' W 075°22'2 3.3
2017-Dec-11 14:31N 39°51' W 075°21'0 0.4
2017-Dec-11 14:00N 39°51' W 075°21'3 7.0
2017-Dec-11 13:30N 39°49' W 075°24'2 4.7
2017-Dec-11 13:01N 39°47' W 075°27'0 0.0
2017-Dec-11 12:31N 39°47' W 075°27'0 0.0
2017-Dec-11 12:00N 39°47' W 075°27'0 0.0
2017-Dec-11 11:31N 39°47' W 075°27'0 0.0
2017-Dec-11 11:01N 39°47' W 075°27'0 0.0
2017-Dec-11 10:30N 39°47' W 075°27'0 0.0
2017-Dec-11 10:01N 39°47' W 075°27'0 0.0
2017-Dec-11 09:31N 39°47' W 075°27'1 1.9
2017-Dec-11 09:00N 39°48' W 075°26'1 1.6
2017-Dec-11 08:31N 39°47' W 075°27'0 0.4
2017-Dec-11 08:00N 39°47' W 075°27'0 0.1
2017-Dec-11 07:31N 39°47' W 075°27'0 0.1
2017-Dec-11 07:01N 39°47' W 075°27'0 0.0
2017-Dec-11 06:30N 39°47' W 075°27'0 0.0
2017-Dec-11 06:01N 39°47' W 075°27'0 0.0
2017-Dec-11 05:30N 39°47' W 075°27'0 0.0
2017-Dec-11 05:01N 39°47' W 075°27'0 0.0
2017-Dec-11 04:31N 39°47' W 075°27'0 0.0
2017-Dec-11 04:01N 39°47' W 075°27'0 0.0
2017-Dec-11 03:31N 39°47' W 075°27'0 0.0
2017-Dec-11 03:01N 39°47' W 075°27'0 0.0
2017-Dec-11 02:31N 39°47' W 075°27'1 1.4
2017-Dec-11 02:00N 39°48' W 075°26'4 7.7
2017-Dec-11 01:31N 39°50' W 075°22'2 3.8
2017-Dec-11 01:01N 39°51' W 075°20'0 0.4
2017-Dec-11 00:30N 39°51' W 075°20'3 5.2
2017-Dec-11 00:01N 39°49' W 075°23'3 5.7
2017-Dec-10 23:30N 39°48' W 075°26'2 4.6
2017-Dec-10 23:01N 39°46' W 075°28'3 5.7
2017-Dec-10 22:31N 39°44' W 075°30'4 7.7
2017-Dec-10 22:01N 39°40' W 075°32'4 7.7
2017-Dec-10 21:31N 39°37' W 075°35'4 8.2
2017-Dec-10 21:01N 39°33' W 075°32'4 8.6
2017-Dec-10 20:31N 39°29' W 075°34'4 8.2
2017-Dec-10 20:00N 39°25' W 075°31'4 8.1
2017-Dec-10 19:31N 39°22' W 075°28'4 7.9
2017-Dec-10 19:00N 39°19' W 075°24'4 7.4
2017-Dec-10 18:30N 39°17' W 075°21'3 6.9
2017-Dec-10 18:00N 39°14' W 075°18'4 7.1
2017-Dec-10 17:30N 39°11' W 075°16'4 7.1
2017-Dec-10 17:00N 39°08' W 075°13'4 7.1
2017-Dec-10 16:27N 39°04' W 075°11'6 6.8
2017-Dec-10 15:31N 38°58' W 075°10'0 2.9
2017-Dec-10 15:30N 38°58' W 075°10'0 0.1
2017-Dec-10 14:50N 38°58' W 075°10'0 0.2
2017-Dec-10 14:29N 38°58' W 075°10'1 2.4
2017-Dec-10 13:56N 38°59' W 075°09'3 4.1
2017-Dec-10 13:17N 39°02' W 075°10'2 6.1
2017-Dec-10 12:59N 39°04' W 075°11'3 7.1
2017-Dec-10 12:31N 39°07' W 075°13'4 7.1
2017-Dec-10 12:00N 39°09' W 075°15'4 7.1
2017-Dec-10 11:30N 39°13' W 075°17'3 6.6
2017-Dec-10 11:00N 39°15' W 075°20'3 6.0
2017-Dec-10 10:30N 39°18' W 075°22'2 4.9
2017-Dec-10 10:01N 39°19' W 075°24'2 4.4
2017-Dec-10 09:30N 39°21' W 075°26'2 3.9
2017-Dec-10 09:00N 39°22' W 075°28'2 3.8
2017-Dec-10 08:31N 39°24' W 075°30'2 3.7
2017-Dec-10 08:01N 39°25' W 075°31'2 3.4
2017-Dec-10 07:31N 39°27' W 075°33'2 4.0
2017-Dec-10 07:01N 39°28' W 075°34'2 4.0
2017-Dec-10 06:31N 39°30' W 075°33'2 4.8
2017-Dec-10 06:01N 39°33' W 075°33'3 5.5
2017-Dec-10 05:30N 39°35' W 075°34'3 6.0
2017-Dec-10 05:01N 39°38' W 075°34'3 6.9
2017-Dec-10 04:30N 39°41' W 075°31'3 7.0
2017-Dec-10 04:01N 39°44' W 075°30'3 5.3
2017-Dec-10 03:30N 39°46' W 075°28'1 1.7
2017-Dec-10 03:00N 39°47' W 075°27'0 0.2
2017-Dec-10 02:30N 39°47' W 075°27'0 0.0
2017-Dec-10 02:01N 39°47' W 075°27'0 0.1
2017-Dec-10 01:31N 39°47' W 075°27'0 0.8
2017-Dec-10 01:00N 39°47' W 075°27'1 1.7
2017-Dec-10 00:30N 39°47' W 075°26'2 3.9
2017-Dec-10 00:00N 39°49' W 075°24'2 3.7
2017-Dec-09 23:30N 39°50' W 075°22'1 3.0
2017-Dec-09 23:00N 39°51' W 075°21'1 2.0
2017-Dec-09 22:31N 39°51' W 075°20'1 1.1
2017-Dec-09 22:01N 39°51' W 075°21'0 0.9
2017-Dec-09 21:30N 39°51' W 075°21'3 6.8
2017-Dec-09 21:01N 39°49' W 075°25'2 4.1
2017-Dec-09 20:30N 39°47' W 075°27'0 0.0
2017-Dec-09 20:00N 39°47' W 075°27'0 0.0
2017-Dec-09 19:30N 39°47' W 075°27'0 0.0
2017-Dec-09 19:01N 39°47' W 075°27'0 0.0
2017-Dec-09 18:30N 39°47' W 075°27'0 0.0
2017-Dec-09 18:00N 39°47' W 075°27'0 0.0
2017-Dec-09 17:30N 39°47' W 075°27'0 0.0
2017-Dec-09 17:01N 39°47' W 075°27'0 0.0
2017-Dec-09 16:31N 39°47' W 075°27'0 0.0
2017-Dec-09 16:00N 39°47' W 075°27'0 0.0
2017-Dec-09 15:31N 39°47' W 075°27'0 0.0
2017-Dec-09 15:01N 39°47' W 075°27'0 0.0
2017-Dec-09 14:31N 39°47' W 075°27'0 0.0
2017-Dec-09 14:00N 39°47' W 075°27'0 0.0
2017-Dec-09 13:30N 39°47' W 075°27'0 0.0
2017-Dec-09 13:00N 39°47' W 075°27'0 0.0
2017-Dec-09 12:31N 39°47' W 075°27'0 0.0
2017-Dec-09 12:00N 39°47' W 075°27'0 0.0
2017-Dec-09 11:31N 39°47' W 075°27'0 0.0
2017-Dec-09 11:01N 39°47' W 075°27'0 0.0
2017-Dec-09 10:31N 39°47' W 075°27'0 0.0
2017-Dec-09 10:00N 39°47' W 075°27'0 0.0
2017-Dec-09 09:31N 39°47' W 075°27'0 0.0
2017-Dec-09 09:01N 39°47' W 075°27'0 0.0
2017-Dec-09 08:31N 39°47' W 075°27'0 0.0
2017-Dec-09 08:00N 39°47' W 075°27'0 0.0
2017-Dec-09 07:31N 39°47' W 075°27'0 0.0
2017-Dec-09 07:01N 39°47' W 075°27'0 0.0
2017-Dec-09 06:31N 39°47' W 075°27'0 0.0
2017-Dec-09 06:00N 39°47' W 075°27'0 0.0
2017-Dec-09 05:31N 39°47' W 075°27'0 0.0
2017-Dec-09 05:01N 39°47' W 075°27'0 0.0
2017-Dec-09 04:31N 39°47' W 075°27'0 0.0
2017-Dec-09 04:01N 39°47' W 075°27'0 0.0
2017-Dec-09 03:30N 39°47' W 075°27'0 0.0
2017-Dec-09 03:00N 39°47' W 075°27'0 0.0
2017-Dec-09 02:30N 39°47' W 075°27'0 0.0
2017-Dec-09 02:00N 39°47' W 075°27'0 0.0
2017-Dec-09 01:30N 39°47' W 075°27'0 0.0
2017-Dec-09 01:00N 39°47' W 075°27'0 0.0
2017-Dec-09 00:31N 39°47' W 075°27'0 0.0
2017-Dec-09 00:01N 39°47' W 075°27'0 0.0
2017-Dec-08 23:30N 39°47' W 075°27'0 0.0
2017-Dec-08 23:00N 39°47' W 075°27'0 0.0
2017-Dec-08 22:31N 39°47' W 075°27'0 0.0
2017-Dec-08 22:01N 39°47' W 075°27'0 0.0
2017-Dec-08 21:31N 39°47' W 075°27'0 0.0
2017-Dec-08 21:01N 39°47' W 075°27'0 0.0
2017-Dec-08 20:31N 39°47' W 075°27'  
Track history (hours):
 
Tides and Currents Weather Stations Pressure Air Temp Water Temp Dewpoint Dewpoint Depression Visibility Wind Speed Wind Dir Waves Ship Positions

MiSS Gloria

Owner: Marquette Transportation Company Offshore LLC, Jefferson, LA. More information available from US FCC via Universal Licensing System and Coast Guard Vessel Documentation Center.

Last reported at 2017-Dec-18 20:30 UTC. Time now 2017-Dec-18 20:39 UTC.
Position N 39°28' W 075°34'.

Length 29 m; draft 3 m.

Type: Tug. MMSI: 367430780.

Date/timePositionNaut miles runAvg speedWind from/ knotsBaromVisibWave heightAir tempDewpointWater temp
2017-Dec-18 20:30N 39°28' W 075°34'4 8.6
2017-Dec-18 20:00N 39°32' W 075°33'4 7.9
2017-Dec-18 19:30N 39°36' W 075°34'3 6.5
2017-Dec-18 19:00N 39°39' W 075°33'3 6.2
2017-Dec-18 18:31N 39°42' W 075°31'3 6.4
2017-Dec-18 18:01N 39°45' W 075°30'3 5.5
2017-Dec-18 17:30N 39°47' W 075°28'3 5.1
2017-Dec-18 17:00N 39°48' W 075°25'2 4.6
2017-Dec-18 16:30N 39°50' W 075°22'2 3.4
2017-Dec-18 16:00N 39°51' W 075°21'1 1.2
2017-Dec-18 15:30N 39°51' W 075°20'0 0.1
2017-Dec-18 15:00N 39°51' W 075°20'2 4.8
2017-Dec-18 14:31N 39°50' W 075°22'5 9.7
2017-Dec-18 14:01N 39°47' W 075°27'4 7.6
2017-Dec-18 13:31N 39°43' W 075°30'5 9.3
2017-Dec-18 13:01N 39°39' W 075°33'4 8.1
2017-Dec-18 12:30N 39°35' W 075°34'4 8.6
2017-Dec-18 12:01N 39°31' W 075°33'4 8.2
2017-Dec-18 11:31N 39°27' W 075°33'4 8.0
2017-Dec-18 11:01N 39°24' W 075°30'4 7.9
2017-Dec-18 10:30N 39°21' W 075°26'4 7.7
2017-Dec-18 10:01N 39°18' W 075°23'4 7.5
2017-Dec-18 09:30N 39°15' W 075°20'4 7.4
2017-Dec-18 09:01N 39°12' W 075°17'4 7.6
2017-Dec-18 08:31N 39°09' W 075°14'4 7.9
2017-Dec-18 08:01N 39°06' W 075°11'8 7.1
2017-Dec-18 06:55N 38°58' W 075°10'1 1.8
2017-Dec-18 06:31N 38°59' W 075°09'3 5.4
2017-Dec-18 06:00N 39°01' W 075°10'4 7.6
2017-Dec-18 05:31N 39°05' W 075°11'4 7.5
2017-Dec-18 05:00N 39°08' W 075°14'3 7.0
2017-Dec-18 04:30N 39°11' W 075°16'3 6.7
2017-Dec-18 04:00N 39°14' W 075°18'3 6.1
2017-Dec-18 03:31N 39°16' W 075°21'3 5.4
2017-Dec-18 03:00N 39°18' W 075°23'3 5.1
2017-Dec-18 02:30N 39°20' W 075°25'2 4.4
2017-Dec-18 02:00N 39°22' W 075°27'2 4.6
2017-Dec-18 01:31N 39°24' W 075°29'2 4.8
2017-Dec-18 01:00N 39°25' W 075°31'3 5.3
2017-Dec-18 00:30N 39°27' W 075°34'3 5.9
2017-Dec-18 00:00N 39°30' W 075°33'3 6.6
2017-Dec-17 23:30N 39°34' W 075°33'4 7.7
2017-Dec-17 23:00N 39°37' W 075°35'4 8.0
2017-Dec-17 22:30N 39°40' W 075°32'4 8.3
2017-Dec-17 22:00N 39°44' W 075°30'3 6.0
2017-Dec-17 21:30N 39°47' W 075°28'1 1.1
2017-Dec-17 21:00N 39°47' W 075°27'0 0.1
2017-Dec-17 20:30N 39°47' W 075°27'0 0.5
2017-Dec-17 20:00N 39°47' W 075°27'2 3.9
2017-Dec-17 19:31N 39°46' W 075°29'3 6.3
2017-Dec-17 19:01N 39°43' W 075°30'3 6.9
2017-Dec-17 18:31N 39°40' W 075°32'3 6.9
2017-Dec-17 18:00N 39°37' W 075°34'3 6.2
2017-Dec-17 17:30N 39°34' W 075°33'4 8.6
2017-Dec-17 17:00N 39°29' W 075°34'4 8.6
2017-Dec-17 16:30N 39°25' W 075°31'5 9.6
2017-Dec-17 16:01N 39°22' W 075°27'5 9.9
2017-Dec-17 15:30N 39°18' W 075°23'510.1
2017-Dec-17 15:00N 39°15' W 075°19'5 9.7
2017-Dec-17 14:30N 39°10' W 075°16'5 9.4
2017-Dec-17 14:00N 39°06' W 075°12'8 8.9
2017-Dec-17 13:05N 38°58' W 075°09'0 5.9
2017-Dec-17 13:00N 38°58' W 075°09'0 0.2
2017-Dec-17 12:31N 38°58' W 075°09'1 2.0
2017-Dec-17 12:01N 38°59' W 075°09'0 0.7
2017-Dec-17 11:30N 38°59' W 075°10'1 2.1
2017-Dec-17 11:01N 39°00' W 075°10'2 3.2
2017-Dec-17 10:31N 39°02' W 075°10'3 5.8
2017-Dec-17 10:01N 39°05' W 075°11'3 6.4
2017-Dec-17 09:30N 39°07' W 075°13'3 7.0
2017-Dec-17 09:01N 39°10' W 075°16'4 8.5
2017-Dec-17 08:31N 39°14' W 075°18'4 8.9
2017-Dec-17 08:00N 39°17' W 075°22'5 9.2
2017-Dec-17 07:31N 39°21' W 075°26'4 8.9
2017-Dec-17 07:01N 39°24' W 075°30'4 8.7
2017-Dec-17 06:31N 39°28' W 075°34'4 8.2
2017-Dec-17 06:01N 39°32' W 075°33'4 7.4
2017-Dec-17 05:31N 39°35' W 075°34'3 6.2
2017-Dec-17 05:00N 39°38' W 075°34'3 6.3
2017-Dec-17 04:31N 39°41' W 075°31'3 5.8
2017-Dec-17 04:01N 39°44' W 075°30'3 5.2
2017-Dec-17 03:31N 39°46' W 075°29'2 4.1
2017-Dec-17 03:01N 39°47' W 075°27'0 0.3
2017-Dec-17 02:31N 39°47' W 075°27'1 1.8
2017-Dec-17 02:01N 39°47' W 075°28'1 1.3
2017-Dec-17 01:30N 39°46' W 075°28'4 8.4
2017-Dec-17 01:01N 39°42' W 075°31'4 8.9
2017-Dec-17 00:31N 39°39' W 075°33'4 8.0
2017-Dec-17 00:01N 39°35' W 075°33'4 8.3
2017-Dec-16 23:30N 39°30' W 075°33'4 7.7
2017-Dec-16 23:00N 39°27' W 075°33'4 7.7
2017-Dec-16 22:30N 39°24' W 075°29'3 6.7
2017-Dec-16 22:00N 39°21' W 075°27'2 4.8
2017-Dec-16 21:30N 39°20' W 075°24'3 6.5
2017-Dec-16 21:01N 39°17' W 075°22'3 6.8
2017-Dec-16 20:30N 39°15' W 075°19'3 6.4
2017-Dec-16 20:00N 39°12' W 075°17'3 6.7
2017-Dec-16 19:30N 39°09' W 075°14'3 7.0
2017-Dec-16 19:00N 39°06' W 075°12'8 6.4
2017-Dec-16 17:42N 38°58' W 075°10'1 1.7
2017-Dec-16 17:16N 38°59' W 075°10'2 4.1
2017-Dec-16 16:50N 39°00' W 075°10'2 5.5
2017-Dec-16 16:25N 39°03' W 075°10'3 6.8
2017-Dec-16 16:01N 39°05' W 075°11'3 6.7
2017-Dec-16 15:31N 39°08' W 075°14'3 6.2
2017-Dec-16 15:01N 39°10' W 075°16'3 5.7
2017-Dec-16 14:30N 39°13' W 075°18'3 5.0
2017-Dec-16 14:01N 39°15' W 075°19'3 5.4
2017-Dec-16 13:28N 39°17' W 075°22'1 3.2
2017-Dec-16 13:00N 39°18' W 075°23'2 4.1
2017-Dec-16 12:28N 39°20' W 075°25'2 4.0
2017-Dec-16 12:00N 39°21' W 075°27'2 4.3
2017-Dec-16 11:30N 39°23' W 075°29'2 4.7
2017-Dec-16 11:00N 39°25' W 075°31'3 5.3
2017-Dec-16 10:30N 39°27' W 075°33'3 5.9
2017-Dec-16 10:00N 39°30' W 075°34'3 6.9
2017-Dec-16 09:30N 39°33' W 075°33'4 7.3
2017-Dec-16 09:00N 39°36' W 075°34'4 6.9
2017-Dec-16 08:29N 39°40' W 075°32'4 7.6
2017-Dec-16 08:00N 39°43' W 075°31'4 8.3
2017-Dec-16 07:29N 39°47' W 075°28'0 0.8
2017-Dec-16 07:00N 39°47' W 075°27'0 0.0
2017-Dec-16 06:30N 39°47' W 075°27'0 0.0
2017-Dec-16 06:00N 39°47' W 075°27'1 1.0
2017-Dec-16 05:30N 39°47' W 075°27'3 5.2
2017-Dec-16 04:59N 39°49' W 075°24'2 3.5
2017-Dec-16 04:30N 39°50' W 075°22'2 3.6
2017-Dec-16 04:00N 39°51' W 075°20'1 1.3
2017-Dec-16 03:31N 39°51' W 075°19'0 0.0
2017-Dec-16 03:01N 39°51' W 075°19'1 2.2
2017-Dec-16 02:30N 39°51' W 075°21'510.1
2017-Dec-16 02:00N 39°48' W 075°26'510.2
2017-Dec-16 01:30N 39°44' W 075°30'510.5
2017-Dec-16 01:01N 39°39' W 075°33'5 9.2
2017-Dec-16 00:31N 39°34' W 075°33'2 4.4
2017-Dec-16 00:00N 39°32' W 075°33'5 9.5
2017-Dec-15 23:31N 39°27' W 075°34'5 9.3
2017-Dec-15 23:00N 39°24' W 075°30'4 8.3
2017-Dec-15 22:31N 39°21' W 075°26'4 7.6
2017-Dec-15 22:00N 39°18' W 075°23'4 7.7
2017-Dec-15 21:30N 39°15' W 075°19'3 5.1
2017-Dec-15 21:01N 39°13' W 075°18'3 6.8
2017-Dec-15 20:30N 39°10' W 075°15'4 7.5
2017-Dec-15 20:01N 39°07' W 075°13'9 6.1
2017-Dec-15 18:28N 38°58' W 075°10'5 4.2
2017-Dec-15 17:20N 39°03' W 075°10'2 6.8
2017-Dec-15 17:00N 39°05' W 075°11'3 7.0
2017-Dec-15 16:31N 39°08' W 075°13'3 6.8
2017-Dec-15 16:00N 39°10' W 075°16'3 6.5
2017-Dec-15 15:30N 39°13' W 075°18'3 6.2
2017-Dec-15 15:00N 39°16' W 075°20'3 5.6
2017-Dec-15 14:30N 39°18' W 075°23'2 4.9
2017-Dec-15 14:00N 39°20' W 075°25'2 4.2
2017-Dec-15 13:31N 39°21' W 075°27'2 3.6
2017-Dec-15 13:01N 39°23' W 075°28'2 3.7
2017-Dec-15 12:30N 39°24' W 075°30'2 3.9
2017-Dec-15 12:00N 39°25' W 075°31'2 3.8
2017-Dec-15 11:30N 39°27' W 075°33'2 4.2
2017-Dec-15 11:01N 39°29' W 075°34'2 4.6
2017-Dec-15 10:30N 39°31' W 075°33'3 5.2
2017-Dec-15 10:00N 39°34' W 075°33'3 6.0
2017-Dec-15 09:30N 39°36' W 075°34'3 6.0
2017-Dec-15 09:00N 39°39' W 075°33'4 7.1
2017-Dec-15 08:30N 39°42' W 075°31'4 7.4
2017-Dec-15 08:00N 39°46' W 075°29'3 6.1
2017-Dec-15 07:30N 39°48' W 075°26'3 5.7
2017-Dec-15 07:00N 39°49' W 075°23'2 4.8
2017-Dec-15 06:30N 39°51' W 075°21'1 1.7
2017-Dec-15 06:00N 39°51' W 075°20'1 1.0
2017-Dec-15 05:30N 39°51' W 075°20'3 5.4
2017-Dec-15 05:00N 39°49' W 075°23'3 6.6
2017-Dec-15 04:30N 39°47' W 075°27'3 5.6
2017-Dec-15 04:00N 39°45' W 075°29'12 8.0
2017-Dec-15 02:30N 39°34' W 075°33'9 6.1
2017-Dec-15 01:01N 39°25' W 075°30'4 7.2
2017-Dec-15 00:30N 39°22' W 075°27'15 2.5
2017-Dec-14 18:30N 39°10' W 075°16'4 8.9
2017-Dec-14 18:00N 39°14' W 075°18'5 9.3
2017-Dec-14 17:30N 39°17' W 075°22'5 9.2
2017-Dec-14 17:00N 39°21' W 075°26'4 8.6
2017-Dec-14 16:31N 39°24' W 075°30'4 8.2
2017-Dec-14 16:01N 39°27' W 075°33'7 7.1
2017-Dec-14 15:00N 39°34' W 075°33'3 6.2
2017-Dec-14 14:31N 39°37' W 075°35'3 5.4
2017-Dec-14 14:01N 39°39' W 075°33'2 4.9
2017-Dec-14 13:31N 39°41' W 075°31'2 4.8
2017-Dec-14 13:00N 39°44' W 075°30'2 4.4
2017-Dec-14 12:31N 39°46' W 075°29'2 3.4
2017-Dec-14 12:00N 39°47' W 075°28'0 0.4
2017-Dec-14 11:31N 39°47' W 075°27'1 1.2
2017-Dec-14 11:00N 39°47' W 075°27'0 0.5
2017-Dec-14 10:30N 39°47' W 075°26'0 0.0
2017-Dec-14 10:01N 39°47' W 075°27'0 0.0
2017-Dec-14 09:31N 39°47' W 075°27'1 1.7
2017-Dec-14 09:01N 39°47' W 075°27'3 6.3
2017-Dec-14 08:31N 39°44' W 075°30'2 3.5
2017-Dec-14 08:01N 39°43' W 075°32'0 0.0
2017-Dec-14 07:30N 39°43' W 075°32'0 0.0
2017-Dec-14 07:00N 39°43' W 075°32'0 0.0
2017-Dec-14 06:31N 39°43' W 075°32'0 0.0
2017-Dec-14 06:00N 39°43' W 075°32'0 0.0
2017-Dec-14 05:30N 39°43' W 075°32'0 0.0
2017-Dec-14 05:00N 39°43' W 075°32'1 1.2
2017-Dec-14 04:30N 39°43' W 075°31'3 6.7
2017-Dec-14 04:00N 39°46' W 075°29'2 4.2
2017-Dec-14 03:30N 39°47' W 075°27'0 0.0
2017-Dec-14 03:00N 39°47' W 075°27'0 0.0
2017-Dec-14 02:30N 39°47' W 075°27'0 0.0
2017-Dec-14 02:00N 39°47' W 075°27'0 0.0
2017-Dec-14 01:30N 39°47' W 075°27'0 0.0
2017-Dec-14 01:01N 39°47' W 075°27'1 1.1
2017-Dec-14 00:30N 39°48' W 075°26'0 0.0
2017-Dec-14 00:00N 39°48' W 075°26'0 0.0
2017-Dec-13 23:31N 39°48' W 075°26'0 0.0
2017-Dec-13 23:00N 39°48' W 075°26'0 0.0
2017-Dec-13 22:30N 39°48' W 075°26'0 0.0
2017-Dec-13 22:01N 39°48' W 075°26'0 0.0
2017-Dec-13 21:30N 39°48' W 075°26'1 1.1
2017-Dec-13 21:00N 39°47' W 075°27'0 0.0
2017-Dec-13 20:30N 39°47' W 075°27'0 0.0
2017-Dec-13 20:00N 39°47' W 075°27'0 0.0
2017-Dec-13 19:30N 39°47' W 075°27'0 0.0
2017-Dec-13 19:00N 39°47' W 075°27'0 0.0
2017-Dec-13 18:31N 39°47' W 075°27'0 0.0
2017-Dec-13 18:00N 39°47' W 075°27'0 0.0
2017-Dec-13 17:30N 39°47' W 075°27'0 0.0
2017-Dec-13 17:00N 39°47' W 075°27'0 0.0
2017-Dec-13 16:30N 39°47' W 075°27'0 0.0
2017-Dec-13 16:00N 39°47' W 075°27'0 0.1
2017-Dec-13 15:30N 39°47' W 075°26'0 0.0
2017-Dec-13 15:00N 39°47' W 075°26'0 0.0
2017-Dec-13 14:30N 39°47' W 075°26'0 0.0
2017-Dec-13 14:00N 39°47' W 075°26'0 0.0
2017-Dec-13 13:30N 39°47' W 075°26'0 0.0
2017-Dec-13 13:00N 39°47' W 075°26'0 0.0
2017-Dec-13 12:30N 39°47' W 075°26'0 0.0
2017-Dec-13 12:00N 39°47' W 075°26'0 0.0
2017-Dec-13 11:30N 39°47' W 075°26'0 0.0
2017-Dec-13 11:00N 39°47' W 075°26'0 0.0
2017-Dec-13 10:30N 39°47' W 075°26'0 0.0
2017-Dec-13 10:00N 39°47' W 075°26'0 0.0
2017-Dec-13 09:30N 39°47' W 075°26'0 0.0
2017-Dec-13 09:00N 39°47' W 075°26'0 0.0
2017-Dec-13 08:30N 39°47' W 075°26'0 0.0
2017-Dec-13 08:00N 39°47' W 075°26'0 0.0
2017-Dec-13 07:30N 39°47' W 075°26'0 0.0
2017-Dec-13 07:00N 39°47' W 075°26'0 0.0
2017-Dec-13 06:30N 39°47' W 075°26'0 0.0
2017-Dec-13 06:00N 39°47' W 075°26'0 0.0
2017-Dec-13 05:30N 39°47' W 075°26'0 0.0
2017-Dec-13 05:00N 39°47' W 075°26'0 0.0
2017-Dec-13 04:30N 39°47' W 075°26'0 0.0
2017-Dec-13 04:00N 39°47' W 075°26'0 0.0
2017-Dec-13 03:30N 39°47' W 075°26'0 0.0
2017-Dec-13 03:00N 39°47' W 075°26'0 0.0
2017-Dec-13 02:30N 39°47' W 075°26'0 0.0
2017-Dec-13 02:00N 39°47' W 075°26'0 0.0
2017-Dec-13 01:31N 39°47' W 075°26'1 2.9
2017-Dec-13 01:01N 39°48' W 075°25'2 4.3
2017-Dec-13 00:30N 39°49' W 075°23'2 3.2
2017-Dec-13 00:00N 39°50' W 075°21'1 1.4
2017-Dec-12 23:30N 39°51' W 075°20'0 0.3
2017-Dec-12 23:00N 39°51' W 075°20'0 0.2
2017-Dec-12 22:30N 39°51' W 075°20'0 0.1
2017-Dec-12 22:00N 39°51' W 075°20'0 0.0
2017-Dec-12 21:31N 39°51' W 075°20'0 0.0
2017-Dec-12 21:00N 39°51' W 075°20'1 1.5
2017-Dec-12 20:30N 39°50' W 075°21'3 5.1
2017-Dec-12 20:00N 39°49' W 075°24'3 6.5
2017-Dec-12 19:30N 39°51' W 075°20'0 0.2
2017-Dec-12 19:01N 39°51' W 075°20'3 5.3
2017-Dec-12 18:31N 39°49' W 075°23'4 7.7
2017-Dec-12 18:01N 39°47' W 075°27'2 4.6
2017-Dec-12 17:31N 39°45' W 075°29'3 6.2
2017-Dec-12 17:00N 39°42' W 075°31'3 5.9
2017-Dec-12 16:30N 39°40' W 075°32'3 5.9
2017-Dec-12 16:00N 39°37' W 075°35'3 6.0
2017-Dec-12 15:30N 39°35' W 075°33'4 8.3
2017-Dec-12 15:00N 39°30' W 075°33'2 4.2
2017-Dec-12 14:30N 39°28' W 075°34'3 6.6
2017-Dec-12 14:00N 39°25' W 075°31'5 9.2
2017-Dec-12 13:30N 39°22' W 075°27'3 6.8
2017-Dec-12 13:00N 39°20' W 075°24'4 7.9
2017-Dec-12 12:30N 39°17' W 075°21'4 7.0
2017-Dec-12 11:55N 39°13' W 075°18'3 7.5
2017-Dec-12 11:28N 39°10' W 075°16'4 7.2
2017-Dec-12 10:56N 39°07' W 075°13'3 0.8
2017-Dec-12 07:20N 39°05' W 075°11'2 4.2
2017-Dec-12 06:55N 39°06' W 075°12'2 4.2
2017-Dec-12 06:28N 39°08' W 075°14'2 4.7
2017-Dec-12 05:59N 39°10' W 075°15'3 5.8
2017-Dec-12 05:30N 39°12' W 075°17'4 7.1
2017-Dec-12 04:59N 39°15' W 075°20'4 7.5
2017-Dec-12 04:25N 39°18' W 075°23'4 7.2
2017-Dec-12 03:55N 39°21' W 075°27'2 5.5
2017-Dec-12 03:30N 39°23' W 075°28'4 8.7
2017-Dec-12 03:00N 39°26' W 075°32'3 6.0
2017-Dec-12 02:30N 39°29' W 075°34'4 7.6
2017-Dec-12 02:00N 39°32' W 075°33'3 6.2
2017-Dec-12 01:30N 39°35' W 075°34'3 5.6
2017-Dec-12 01:00N 39°38' W 075°34'3 5.5
2017-Dec-12 00:31N 39°40' W 075°32'3 5.1
2017-Dec-12 00:01N 39°43' W 075°31'2 4.8
2017-Dec-11 23:31N 39°45' W 075°29'2 4.0
2017-Dec-11 23:00N 39°47' W 075°28'0 0.9
2017-Dec-11 22:30N 39°47' W 075°27'0 0.1
2017-Dec-11 22:00N 39°47' W 075°27'0 0.0
2017-Dec-11 21:31N 39°47' W 075°27'0 0.2
2017-Dec-11 21:00N 39°47' W 075°27'0 0.2
2017-Dec-11 20:30N 39°47' W 075°27'0 0.1
2017-Dec-11 20:01N 39°47' W 075°27'0 0.5
2017-Dec-11 19:30N 39°47' W 075°27'0 0.0
2017-Dec-11 19:00N 39°47' W 075°27'0 0.0
2017-Dec-11 18:31N 39°47' W 075°27'0 0.0
2017-Dec-11 18:00N 39°47' W 075°27'0 0.5
2017-Dec-11 17:31N 39°47' W 075°27'1 1.6
2017-Dec-11 17:01N 39°48' W 075°26'0 0.9
2017-Dec-11 16:30N 39°47' W 075°27'0 0.5
2017-Dec-11 16:00N 39°47' W 075°27'2 3.9
2017-Dec-11 15:31N 39°48' W 075°25'2 5.0
2017-Dec-11 15:01N 39°50' W 075°22'2 3.3
2017-Dec-11 14:31N 39°51' W 075°21'0 0.4
2017-Dec-11 14:00N 39°51' W 075°21'3 7.0
2017-Dec-11 13:30N 39°49' W 075°24'2 4.7
2017-Dec-11 13:01N 39°47' W 075°27'0 0.0
2017-Dec-11 12:31N 39°47' W 075°27'0 0.0
2017-Dec-11 12:00N 39°47' W 075°27'0 0.0
2017-Dec-11 11:31N 39°47' W 075°27'0 0.0
2017-Dec-11 11:01N 39°47' W 075°27'0 0.0
2017-Dec-11 10:30N 39°47' W 075°27'0 0.0
2017-Dec-11 10:01N 39°47' W 075°27'0 0.0
2017-Dec-11 09:31N 39°47' W 075°27'1 1.9
2017-Dec-11 09:00N 39°48' W 075°26'1 1.6
2017-Dec-11 08:31N 39°47' W 075°27'0 0.4
2017-Dec-11 08:00N 39°47' W 075°27'0 0.1
2017-Dec-11 07:31N 39°47' W 075°27'0 0.1
2017-Dec-11 07:01N 39°47' W 075°27'0 0.0
2017-Dec-11 06:30N 39°47' W 075°27'0 0.0
2017-Dec-11 06:01N 39°47' W 075°27'0 0.0
2017-Dec-11 05:30N 39°47' W 075°27'0 0.0
2017-Dec-11 05:01N 39°47' W 075°27'0 0.0
2017-Dec-11 04:31N 39°47' W 075°27'0 0.0
2017-Dec-11 04:01N 39°47' W 075°27'0 0.0
2017-Dec-11 03:31N 39°47' W 075°27'0 0.0
2017-Dec-11 03:01N 39°47' W 075°27'0 0.0
2017-Dec-11 02:31N 39°47' W 075°27'1 1.4
2017-Dec-11 02:00N 39°48' W 075°26'4 7.7
2017-Dec-11 01:31N 39°50' W 075°22'2 3.8
2017-Dec-11 01:01N 39°51' W 075°20'0 0.4
2017-Dec-11 00:30N 39°51' W 075°20'3 5.2
2017-Dec-11 00:01N 39°49' W 075°23'3 5.7
2017-Dec-10 23:30N 39°48' W 075°26'2 4.6
2017-Dec-10 23:01N 39°46' W 075°28'3 5.7
2017-Dec-10 22:31N 39°44' W 075°30'4 7.7
2017-Dec-10 22:01N 39°40' W 075°32'4 7.7
2017-Dec-10 21:31N 39°37' W 075°35'4 8.2
2017-Dec-10 21:01N 39°33' W 075°32'4 8.6
2017-Dec-10 20:31N 39°29' W 075°34'4 8.2
2017-Dec-10 20:00N 39°25' W 075°31'4 8.1
2017-Dec-10 19:31N 39°22' W 075°28'4 7.9
2017-Dec-10 19:00N 39°19' W 075°24'4 7.4
2017-Dec-10 18:30N 39°17' W 075°21'3 6.9
2017-Dec-10 18:00N 39°14' W 075°18'4 7.1
2017-Dec-10 17:30N 39°11' W 075°16'4 7.1
2017-Dec-10 17:00N 39°08' W 075°13'4 7.1
2017-Dec-10 16:27N 39°04' W 075°11'6 6.8
2017-Dec-10 15:31N 38°58' W 075°10'0 2.9
2017-Dec-10 15:30N 38°58' W 075°10'0 0.1
2017-Dec-10 14:50N 38°58' W 075°10'0 0.2
2017-Dec-10 14:29N 38°58' W 075°10'1 2.4
2017-Dec-10 13:56N 38°59' W 075°09'3 4.1
2017-Dec-10 13:17N 39°02' W 075°10'2 6.1
2017-Dec-10 12:59N 39°04' W 075°11'3 7.1
2017-Dec-10 12:31N 39°07' W 075°13'4 7.1
2017-Dec-10 12:00N 39°09' W 075°15'4 7.1
2017-Dec-10 11:30N 39°13' W 075°17'3 6.6
2017-Dec-10 11:00N 39°15' W 075°20'3 6.0
2017-Dec-10 10:30N 39°18' W 075°22'2 4.9
2017-Dec-10 10:01N 39°19' W 075°24'2 4.4
2017-Dec-10 09:30N 39°21' W 075°26'2 3.9
2017-Dec-10 09:00N 39°22' W 075°28'2 3.8
2017-Dec-10 08:31N 39°24' W 075°30'2 3.7
2017-Dec-10 08:01N 39°25' W 075°31'2 3.4
2017-Dec-10 07:31N 39°27' W 075°33'2 4.0
2017-Dec-10 07:01N 39°28' W 075°34'2 4.0
2017-Dec-10 06:31N 39°30' W 075°33'2 4.8
2017-Dec-10 06:01N 39°33' W 075°33'3 5.5
2017-Dec-10 05:30N 39°35' W 075°34'3 6.0
2017-Dec-10 05:01N 39°38' W 075°34'3 6.9
2017-Dec-10 04:30N 39°41' W 075°31'3 7.0
2017-Dec-10 04:01N 39°44' W 075°30'3 5.3
2017-Dec-10 03:30N 39°46' W 075°28'1 1.7
2017-Dec-10 03:00N 39°47' W 075°27'0 0.2
2017-Dec-10 02:30N 39°47' W 075°27'0 0.0
2017-Dec-10 02:01N 39°47' W 075°27'0 0.1
2017-Dec-10 01:31N 39°47' W 075°27'0 0.8
2017-Dec-10 01:00N 39°47' W 075°27'1 1.7
2017-Dec-10 00:30N 39°47' W 075°26'2 3.9
2017-Dec-10 00:00N 39°49' W 075°24'2 3.7
2017-Dec-09 23:30N 39°50' W 075°22'1 3.0
2017-Dec-09 23:00N 39°51' W 075°21'1 2.0
2017-Dec-09 22:31N 39°51' W 075°20'1 1.1
2017-Dec-09 22:01N 39°51' W 075°21'0 0.9
2017-Dec-09 21:30N 39°51' W 075°21'3 6.8
2017-Dec-09 21:01N 39°49' W 075°25'2 4.1
2017-Dec-09 20:30N 39°47' W 075°27'0 0.0
2017-Dec-09 20:00N 39°47' W 075°27'0 0.0
2017-Dec-09 19:30N 39°47' W 075°27'0 0.0
2017-Dec-09 19:01N 39°47' W 075°27'0 0.0
2017-Dec-09 18:30N 39°47' W 075°27'0 0.0
2017-Dec-09 18:00N 39°47' W 075°27'0 0.0
2017-Dec-09 17:30N 39°47' W 075°27'0 0.0
2017-Dec-09 17:01N 39°47' W 075°27'0 0.0
2017-Dec-09 16:31N 39°47' W 075°27'0 0.0
2017-Dec-09 16:00N 39°47' W 075°27'0 0.0
2017-Dec-09 15:31N 39°47' W 075°27'0 0.0
2017-Dec-09 15:01N 39°47' W 075°27'0 0.0
2017-Dec-09 14:31N 39°47' W 075°27'0 0.0
2017-Dec-09 14:00N 39°47' W 075°27'0 0.0
2017-Dec-09 13:30N 39°47' W 075°27'0 0.0
2017-Dec-09 13:00N 39°47' W 075°27'0 0.0
2017-Dec-09 12:31N 39°47' W 075°27'0 0.0
2017-Dec-09 12:00N 39°47' W 075°27'0 0.0
2017-Dec-09 11:31N 39°47' W 075°27'0 0.0
2017-Dec-09 11:01N 39°47' W 075°27'0 0.0
2017-Dec-09 10:31N 39°47' W 075°27'0 0.0
2017-Dec-09 10:00N 39°47' W 075°27'0 0.0
2017-Dec-09 09:31N 39°47' W 075°27'0 0.0
2017-Dec-09 09:01N 39°47' W 075°27'0 0.0
2017-Dec-09 08:31N 39°47' W 075°27'0 0.0
2017-Dec-09 08:00N 39°47' W 075°27'0 0.0
2017-Dec-09 07:31N 39°47' W 075°27'0 0.0
2017-Dec-09 07:01N 39°47' W 075°27'0 0.0
2017-Dec-09 06:31N 39°47' W 075°27'0 0.0
2017-Dec-09 06:00N 39°47' W 075°27'0 0.0
2017-Dec-09 05:31N 39°47' W 075°27'0 0.0
2017-Dec-09 05:01N 39°47' W 075°27'0 0.0
2017-Dec-09 04:31N 39°47' W 075°27'0 0.0
2017-Dec-09 04:01N 39°47' W 075°27'0 0.0
2017-Dec-09 03:30N 39°47' W 075°27'0 0.0
2017-Dec-09 03:00N 39°47' W 075°27'0 0.0
2017-Dec-09 02:30N 39°47' W 075°27'0 0.0
2017-Dec-09 02:00N 39°47' W 075°27'0 0.0
2017-Dec-09 01:30N 39°47' W 075°27'0 0.0
2017-Dec-09 01:00N 39°47' W 075°27'0 0.0
2017-Dec-09 00:31N 39°47' W 075°27'0 0.0
2017-Dec-09 00:01N 39°47' W 075°27'0 0.0
2017-Dec-08 23:30N 39°47' W 075°27'0 0.0
2017-Dec-08 23:00N 39°47' W 075°27'0 0.0
2017-Dec-08 22:31N 39°47' W 075°27'0 0.0
2017-Dec-08 22:01N 39°47' W 075°27'0 0.0
2017-Dec-08 21:31N 39°47' W 075°27'0 0.0
2017-Dec-08 21:01N 39°47' W 075°27'0 0.0
2017-Dec-08 20:31N 39°47' W 075°27'  

Dump ship's entire track history